createdAt,value
2022-09-03T00:00:00.973Z,21.08
2022-09-03T00:02:51.814Z,21.10
2022-09-03T00:05:47.770Z,21.13
2022-09-03T00:08:32.208Z,21.15
2022-09-03T00:11:33.602Z,21.20
2022-09-03T00:14:16.367Z,21.26
2022-09-03T00:17:02.050Z,21.33
2022-09-03T00:19:36.671Z,21.38
2022-09-03T00:22:15.407Z,21.48
2022-09-03T00:24:47.181Z,21.54
2022-09-03T00:27:19.486Z,21.59
2022-09-03T00:29:59.811Z,21.66
2022-09-03T00:32:58.778Z,21.68
2022-09-03T00:35:37.469Z,21.72
2022-09-03T00:38:08.667Z,21.78
2022-09-03T00:41:09.243Z,21.87
2022-09-03T00:43:42.373Z,21.97
2022-09-03T00:46:32.185Z,22.04
2022-09-03T00:49:20.161Z,22.13
2022-09-03T00:52:05.566Z,22.18
2022-09-03T00:54:51.021Z,22.24
2022-09-03T00:57:25.952Z,22.32
2022-09-03T00:59:58.341Z,22.40
2022-09-03T01:03:06.484Z,22.50
2022-09-03T01:06:04.910Z,22.61
2022-09-03T01:09:13.340Z,22.76
2022-09-03T01:12:00.716Z,22.88
2022-09-03T01:14:56.830Z,22.97
2022-09-03T01:17:27.159Z,23.03
2022-09-03T01:20:21.746Z,23.12
2022-09-03T01:23:09.862Z,23.17
2022-09-03T01:26:18.292Z,23.21
2022-09-03T01:29:09.217Z,23.28
2022-09-03T01:32:23.263Z,23.37
2022-09-03T01:35:12.633Z,23.41
2022-09-03T01:37:48.647Z,23.43
2022-09-03T01:40:33.425Z,23.42
2022-09-03T01:43:24.482Z,23.50
2022-09-03T01:46:21.670Z,23.60
2022-09-03T01:49:00.419Z,23.73
2022-09-03T01:51:32.411Z,23.84
2022-09-03T01:54:21.001Z,23.94
2022-09-03T01:57:04.496Z,24.01
2022-09-03T01:59:50.717Z,24.09
2022-09-03T02:02:26.885Z,24.12
2022-09-03T02:05:19.508Z,24.16
2022-09-03T02:08:11.595Z,24.24
2022-09-03T02:10:55.576Z,24.31
2022-09-03T02:13:40.464Z,24.37
2022-09-03T02:16:18.306Z,24.45
2022-09-03T02:19:03.689Z,24.47
2022-09-03T02:21:40.927Z,24.53
2022-09-03T02:24:11.587Z,24.59
2022-09-03T02:26:41.498Z,24.67
2022-09-03T02:29:13.427Z,24.72
2022-09-03T02:31:43.566Z,24.82
2022-09-03T02:34:13.719Z,24.91
2022-09-03T02:36:49.012Z,24.95
2022-09-03T02:39:19.353Z,24.95
2022-09-03T02:41:57.365Z,24.96
2022-09-03T02:44:34.626Z,25.00
2022-09-03T02:47:09.518Z,25.02
2022-09-03T02:49:40.061Z,25.05
2022-09-03T02:52:13.527Z,25.10
2022-09-03T02:54:46.413Z,25.17
2022-09-03T02:57:23.847Z,25.24
2022-09-03T02:59:58.371Z,25.30
2022-09-03T03:02:28.817Z,25.32
2022-09-03T03:04:59.426Z,25.39
2022-09-03T03:07:33.843Z,25.44
2022-09-03T03:10:04.187Z,25.46
2022-09-03T03:12:33.785Z,25.50
2022-09-03T03:15:04.011Z,25.50
2022-09-03T03:17:34.404Z,25.53
2022-09-03T03:20:04.678Z,25.53
2022-09-03T03:22:34.744Z,25.52
2022-09-03T03:25:04.687Z,25.54
2022-09-03T03:27:34.755Z,25.58
2022-09-03T03:30:04.793Z,25.64
2022-09-03T03:32:34.800Z,25.69
2022-09-03T03:35:05.522Z,25.71
2022-09-03T03:37:37.155Z,25.78
2022-09-03T03:40:08.845Z,25.79
2022-09-03T03:42:39.561Z,25.82
2022-09-03T03:45:13.593Z,25.84
2022-09-03T03:47:43.856Z,25.88
2022-09-03T03:50:13.880Z,25.87
2022-09-03T03:52:45.040Z,25.88
2022-09-03T03:55:15.879Z,25.89
2022-09-03T03:57:47.190Z,25.96
2022-09-03T04:00:18.618Z,26.00
2022-09-03T04:02:48.988Z,26.04
2022-09-03T04:05:23.075Z,26.06
2022-09-03T04:07:54.122Z,26.05
2022-09-03T04:10:24.344Z,26.08
2022-09-03T04:12:57.518Z,26.08
2022-09-03T04:15:27.862Z,26.08
2022-09-03T04:17:57.834Z,26.08
2022-09-03T04:20:27.747Z,26.04
2022-09-03T04:22:57.776Z,25.98
2022-09-03T04:25:27.761Z,25.95
2022-09-03T04:27:57.742Z,25.87
2022-09-03T04:30:29.055Z,25.86
2022-09-03T04:33:01.093Z,25.85
2022-09-03T04:35:33.120Z,25.86
2022-09-03T04:38:06.954Z,25.88
2022-09-03T04:40:37.238Z,25.91
2022-09-03T04:43:10.391Z,25.93
2022-09-03T04:45:41.372Z,25.95
2022-09-03T04:48:13.580Z,25.94
2022-09-03T04:50:44.668Z,25.91
2022-09-03T04:53:15.239Z,25.92
2022-09-03T04:55:46.139Z,25.94
2022-09-03T04:58:16.465Z,25.97
2022-09-03T05:00:47.662Z,26.00
2022-09-03T05:03:19.935Z,26.04
2022-09-03T05:05:58.181Z,26.10
2022-09-03T05:08:28.772Z,26.14
2022-09-03T05:11:02.790Z,26.19
2022-09-03T05:13:34.937Z,26.26
2022-09-03T05:16:08.541Z,26.30
2022-09-03T05:18:39.725Z,26.33
2022-09-03T05:21:15.627Z,26.37
2022-09-03T05:23:48.451Z,26.39
2022-09-03T05:26:22.803Z,26.41
2022-09-03T05:28:58.381Z,26.37
2022-09-03T05:31:32.802Z,26.36
2022-09-03T05:34:07.723Z,26.26
2022-09-03T05:36:40.303Z,26.18
2022-09-03T05:39:10.668Z,26.17
2022-09-03T05:41:41.356Z,26.14
2022-09-03T05:44:11.526Z,26.16
2022-09-03T05:46:41.822Z,26.18
2022-09-03T05:49:13.196Z,26.24
2022-09-03T05:51:45.174Z,26.32
2022-09-03T05:54:15.743Z,26.36
2022-09-03T05:56:46.203Z,26.40
2022-09-03T05:59:16.727Z,26.44
2022-09-03T06:12:23.433Z,26.28
2022-09-03T06:14:54.349Z,26.19
2022-09-03T06:17:26.383Z,26.13
2022-09-03T06:19:56.531Z,26.13
2022-09-03T06:22:29.766Z,26.15
2022-09-03T06:25:00.157Z,26.18
2022-09-03T06:27:32.018Z,26.18
2022-09-03T06:30:02.161Z,26.25
2022-09-03T06:32:33.082Z,26.24
2022-09-03T06:35:03.385Z,26.21
2022-09-03T06:37:33.585Z,26.17
2022-09-03T06:40:04.505Z,26.15
2022-09-03T06:42:35.565Z,26.09
2022-09-03T06:45:08.355Z,26.02
2022-09-03T06:47:43.363Z,25.96
2022-09-03T06:50:13.671Z,25.90
2022-09-03T06:52:43.714Z,25.87
2022-09-03T06:55:13.103Z,25.81
2022-09-03T06:57:43.239Z,25.75
2022-09-03T07:00:14.105Z,25.67
2022-09-03T07:02:45.056Z,25.64
2022-09-03T07:05:18.760Z,25.59
2022-09-03T07:07:49.336Z,25.54
2022-09-03T07:10:22.388Z,25.50
2022-09-03T07:12:52.769Z,25.45
2022-09-03T07:15:23.218Z,25.43
2022-09-03T07:17:53.273Z,25.45
2022-09-03T07:20:23.811Z,25.45
2022-09-03T07:22:58.069Z,25.47
2022-09-03T07:25:28.683Z,25.47
2022-09-03T07:27:59.547Z,25.45
2022-09-03T07:30:30.405Z,25.44
2022-09-03T07:33:05.401Z,25.44
2022-09-03T07:35:39.097Z,25.44
2022-09-03T07:38:10.532Z,25.38
2022-09-03T07:40:41.402Z,25.35
2022-09-03T07:43:12.171Z,25.34
2022-09-03T07:45:43.186Z,25.29
2022-09-03T07:48:14.286Z,25.26
2022-09-03T07:50:46.537Z,25.24
2022-09-03T07:53:18.696Z,25.22
2022-09-03T07:55:50.879Z,25.18
2022-09-03T07:58:25.358Z,25.12
2022-09-03T08:00:58.553Z,25.10
2022-09-03T08:03:29.272Z,25.05
2022-09-03T08:06:06.633Z,24.92
2022-09-03T08:08:38.613Z,24.64
2022-09-03T08:11:13.732Z,24.17
2022-09-03T08:13:47.036Z,23.77
2022-09-03T08:16:21.107Z,23.46
2022-09-03T08:18:52.541Z,23.15
2022-09-03T08:21:23.254Z,22.86
2022-09-03T08:23:54.326Z,22.66
2022-09-03T08:26:25.176Z,22.41
2022-09-03T08:28:55.419Z,22.37
2022-09-03T08:31:30.465Z,22.29
2022-09-03T08:34:07.852Z,22.20
2022-09-03T08:36:40.692Z,22.12
2022-09-03T08:39:13.199Z,22.05
2022-09-03T08:41:53.553Z,22.03
2022-09-03T08:44:33.350Z,22.00
2022-09-03T08:47:22.282Z,21.98
2022-09-03T08:50:00.503Z,21.97
2022-09-03T08:52:34.080Z,21.98
2022-09-03T08:55:46.028Z,21.99
2022-09-03T08:58:24.809Z,21.98
2022-09-03T09:01:03.414Z,21.99
2022-09-03T09:03:44.980Z,21.99
2022-09-03T09:06:33.300Z,22.03
2022-09-03T09:09:21.057Z,22.07
2022-09-03T09:12:18.209Z,22.12
2022-09-03T09:15:09.335Z,22.10
2022-09-03T09:17:42.225Z,22.02
2022-09-03T09:20:25.226Z,21.95
2022-09-03T09:23:10.487Z,21.88
2022-09-03T09:25:51.395Z,21.81
2022-09-03T09:28:31.071Z,21.74
2022-09-03T09:31:05.907Z,21.68
2022-09-03T09:33:37.068Z,21.61
2022-09-03T09:36:13.018Z,21.57
2022-09-03T09:38:44.482Z,21.55
2022-09-03T09:41:23.377Z,21.54
2022-09-03T09:44:07.101Z,21.53
2022-09-03T09:46:43.463Z,21.52
2022-09-03T09:49:46.402Z,21.50
2022-09-03T09:52:19.062Z,21.45
2022-09-03T09:54:49.615Z,21.41
2022-09-03T09:57:27.474Z,21.37
2022-09-03T10:00:14.722Z,21.33
2022-09-03T10:02:54.551Z,21.29
2022-09-03T10:05:41.869Z,21.28
2022-09-03T10:08:23.235Z,21.27
2022-09-03T10:10:53.760Z,21.27
2022-09-03T10:13:41.759Z,21.29
2022-09-03T10:16:36.325Z,21.29
2022-09-03T10:19:08.897Z,21.30
2022-09-03T10:22:02.607Z,21.28
2022-09-03T10:24:49.939Z,21.24
2022-09-03T10:27:20.200Z,21.23
2022-09-03T10:29:51.577Z,21.25
2022-09-03T10:32:38.002Z,21.27
2022-09-03T10:35:30.647Z,21.31
2022-09-03T10:38:21.914Z,21.32
2022-09-03T10:41:26.439Z,21.33
2022-09-03T10:44:07.692Z,21.34
2022-09-03T10:47:15.877Z,21.32
2022-09-03T10:50:02.891Z,21.32
2022-09-03T10:53:08.366Z,21.28
2022-09-03T10:55:53.062Z,21.27
2022-09-03T10:58:26.468Z,21.28
2022-09-03T11:01:04.638Z,21.26
2022-09-03T11:03:58.255Z,21.26
2022-09-03T11:06:32.124Z,21.27
2022-09-03T11:09:41.166Z,21.28
2022-09-03T11:12:56.974Z,21.29
2022-09-03T11:16:13.785Z,21.30
2022-09-03T11:19:13.335Z,21.33
2022-09-03T11:21:45.257Z,21.33
2022-09-03T11:24:18.300Z,21.35
2022-09-03T11:26:58.359Z,21.37
2022-09-03T11:29:43.107Z,21.40
2022-09-03T11:32:23.120Z,21.43
2022-09-03T11:34:55.877Z,21.43
2022-09-03T11:37:25.885Z,21.46
2022-09-03T11:40:09.955Z,21.47
2022-09-03T11:42:45.785Z,21.50
2022-09-03T11:45:25.214Z,21.50
2022-09-03T11:47:56.220Z,21.49
2022-09-03T11:53:13.819Z,21.47
2022-09-03T11:56:17.787Z,21.48
2022-09-03T11:59:01.467Z,21.49
2022-09-03T12:01:33.701Z,21.51
2022-09-03T12:04:08.277Z,21.50
2022-09-03T12:07:00.632Z,21.52
2022-09-03T12:10:01.419Z,21.52
2022-09-03T12:12:47.252Z,21.53
2022-09-03T12:15:29.840Z,21.52
2022-09-03T12:18:22.178Z,21.53
2022-09-03T12:20:59.930Z,21.53
2022-09-03T12:23:51.556Z,21.53
2022-09-03T12:26:28.667Z,21.54
2022-09-03T12:29:01.126Z,21.53
2022-09-03T12:31:40.050Z,21.53
2022-09-03T12:34:16.491Z,21.52
2022-09-03T12:36:47.609Z,21.51
2022-09-03T12:42:33.028Z,21.48
2022-09-03T12:45:17.128Z,21.48
2022-09-03T12:47:47.330Z,21.50
2022-09-03T12:50:20.055Z,21.49
2022-09-03T12:53:01.362Z,21.49
2022-09-03T12:55:48.848Z,21.50
2022-09-03T12:58:20.573Z,21.50
2022-09-03T13:00:59.972Z,21.51
2022-09-03T13:04:04.376Z,21.50
2022-09-03T13:07:02.309Z,21.49
2022-09-03T13:09:35.607Z,21.46
2022-09-03T13:12:07.166Z,21.44
2022-09-03T13:14:50.679Z,21.47
2022-09-03T13:17:22.912Z,21.48
2022-09-03T13:20:24.327Z,21.47
2022-09-03T13:23:08.064Z,21.46
2022-09-03T13:25:48.181Z,21.45
2022-09-03T13:28:52.950Z,21.41
2022-09-03T13:31:41.113Z,21.38
2022-09-03T13:34:24.095Z,21.36
2022-09-03T13:37:00.688Z,21.33
2022-09-03T13:39:45.771Z,21.31
2022-09-03T13:42:29.187Z,21.28
2022-09-03T13:45:24.382Z,21.27
2022-09-03T13:48:45.740Z,21.26
2022-09-03T13:51:20.674Z,21.25
2022-09-03T13:54:36.387Z,21.24
2022-09-03T13:57:20.369Z,21.23
2022-09-03T14:00:05.094Z,21.22
2022-09-03T14:02:58.525Z,21.20
2022-09-03T14:05:50.508Z,21.20
2022-09-03T14:09:04.612Z,21.18
2022-09-03T14:11:59.722Z,21.19
2022-09-03T14:14:43.925Z,21.17
2022-09-03T14:17:40.048Z,21.17
2022-09-03T14:20:16.066Z,21.16
2022-09-03T14:22:59.018Z,21.17
2022-09-03T14:25:30.344Z,21.14
2022-09-03T14:28:39.950Z,21.14
2022-09-03T14:31:11.243Z,21.14
2022-09-03T14:33:41.712Z,21.14
2022-09-03T14:36:46.346Z,21.13
2022-09-03T14:39:57.726Z,21.14
2022-09-03T14:43:03.242Z,21.14
2022-09-03T14:45:40.521Z,21.14
2022-09-03T14:48:26.204Z,21.14
2022-09-03T14:51:25.881Z,21.15
2022-09-03T14:54:31.196Z,21.14
2022-09-03T14:57:33.457Z,21.15
2022-09-03T15:00:19.954Z,21.16
2022-09-03T15:02:57.116Z,21.15
2022-09-03T15:06:05.245Z,21.16
2022-09-03T15:09:17.308Z,21.16
2022-09-03T15:11:57.166Z,21.15
2022-09-03T15:14:58.966Z,21.14
2022-09-03T15:17:37.787Z,21.11
2022-09-03T15:20:14.228Z,21.12
2022-09-03T15:22:59.665Z,21.11
2022-09-03T15:25:45.703Z,21.10
2022-09-03T15:28:37.466Z,21.11
2022-09-03T15:31:30.889Z,21.12
2022-09-03T15:34:06.766Z,21.13
2022-09-03T15:36:52.112Z,21.12
2022-09-03T15:39:35.717Z,21.13
2022-09-03T15:42:31.733Z,21.13
2022-09-03T15:45:19.078Z,21.12
2022-09-03T15:47:56.034Z,21.12
2022-09-03T15:50:38.458Z,21.13
2022-09-03T15:53:28.224Z,21.11
2022-09-03T15:56:30.426Z,21.10
2022-09-03T15:59:24.312Z,21.11
2022-09-03T16:02:17.540Z,21.10
2022-09-03T16:04:57.682Z,21.12
2022-09-03T16:08:11.935Z,21.11
2022-09-03T16:11:20.183Z,21.13
2022-09-03T16:14:06.835Z,21.12
2022-09-03T16:17:01.659Z,21.10
2022-09-03T16:20:05.550Z,21.09
2022-09-03T16:22:45.341Z,21.09
2022-09-03T16:25:56.721Z,21.09
2022-09-03T16:28:48.790Z,21.10
2022-09-03T16:31:38.082Z,21.10
2022-09-03T16:34:25.343Z,21.10
2022-09-03T16:37:06.350Z,21.11
2022-09-03T16:40:26.976Z,21.09
2022-09-03T16:43:39.258Z,21.10
2022-09-03T16:46:39.579Z,21.10
2022-09-03T16:49:38.132Z,21.10
2022-09-03T16:52:15.054Z,21.10
2022-09-03T16:55:20.410Z,21.10
2022-09-03T16:58:24.528Z,21.07
2022-09-03T17:01:07.100Z,21.09
2022-09-03T17:04:11.895Z,21.10
2022-09-03T17:06:49.941Z,21.09
2022-09-03T17:09:54.244Z,21.09
2022-09-03T17:13:13.284Z,21.10
2022-09-03T17:15:51.670Z,21.08
2022-09-03T17:18:24.713Z,21.09
2022-09-03T17:21:20.336Z,21.10
2022-09-03T17:24:27.749Z,21.11
2022-09-03T17:27:47.910Z,21.11
2022-09-03T17:30:23.927Z,21.12
2022-09-03T17:33:10.333Z,21.14
2022-09-03T17:35:56.248Z,21.14
2022-09-03T17:39:04.342Z,21.15
2022-09-03T17:41:54.564Z,21.15
2022-09-03T17:44:27.331Z,21.15
2022-09-03T17:47:00.275Z,21.15
2022-09-03T17:50:03.617Z,21.17
2022-09-03T17:53:18.928Z,21.17
2022-09-03T17:56:25.628Z,21.17
2022-09-03T17:59:12.628Z,21.18
2022-09-03T18:02:10.378Z,21.20
2022-09-03T18:04:56.270Z,21.21
2022-09-03T18:07:33.743Z,21.21
2022-09-03T18:10:22.159Z,21.21
2022-09-03T18:13:14.298Z,21.22
2022-09-03T18:16:11.336Z,21.21
2022-09-03T18:18:48.972Z,21.18
2022-09-03T18:21:48.917Z,21.20
2022-09-03T18:25:01.493Z,21.20
2022-09-03T18:28:10.175Z,21.22
2022-09-03T18:30:58.524Z,21.21
2022-09-03T18:33:47.600Z,21.22
2022-09-03T18:36:35.908Z,21.20
2022-09-03T18:39:46.753Z,21.22
2022-09-03T18:43:11.182Z,21.22
2022-09-03T18:47:16.483Z,21.20
2022-09-03T18:49:39.292Z,21.20
2022-09-03T18:52:38.295Z,21.20
2022-09-03T18:55:40.441Z,21.19
2022-09-03T18:58:49.456Z,21.18
2022-09-03T19:01:52.079Z,21.18
2022-09-03T19:05:15.039Z,21.17
2022-09-03T19:08:07.228Z,21.16
2022-09-03T19:11:09.943Z,21.15
2022-09-03T19:14:01.378Z,21.13
2022-09-03T19:17:08.304Z,21.10
2022-09-03T19:20:10.522Z,21.08
2022-09-03T19:23:01.153Z,21.06
2022-09-03T19:25:50.816Z,21.05
2022-09-03T19:28:49.126Z,21.05
2022-09-03T19:31:55.857Z,21.05
2022-09-03T19:35:09.177Z,21.02
2022-09-03T19:38:38.293Z,21.02
2022-09-03T19:41:47.329Z,20.98
2022-09-03T19:44:49.704Z,20.97
2022-09-03T19:47:52.934Z,20.96
2022-09-03T19:50:47.905Z,20.95
2022-09-03T19:53:37.701Z,20.93
2022-09-03T19:56:42.428Z,20.92
2022-09-03T19:59:38.760Z,20.91
2022-09-03T20:02:27.078Z,20.89
2022-09-03T20:05:31.370Z,20.90
2022-09-03T20:08:21.283Z,20.89
2022-09-03T20:10:55.213Z,20.90
2022-09-03T20:13:25.691Z,20.88
2022-09-03T20:16:25.220Z,20.88
2022-09-03T20:19:13.536Z,20.89
2022-09-03T20:21:51.284Z,20.88
2022-09-03T20:24:30.305Z,20.87
2022-09-03T20:27:28.510Z,20.86
2022-09-03T20:30:05.711Z,20.87
2022-09-03T20:32:55.778Z,20.87
2022-09-03T20:36:08.132Z,20.83
2022-09-03T20:38:59.870Z,20.86
2022-09-03T20:41:59.018Z,20.85
2022-09-03T20:44:50.598Z,20.82
2022-09-03T20:47:46.833Z,20.81
2022-09-03T20:50:45.332Z,20.84
2022-09-03T20:53:44.542Z,20.77
2022-09-03T20:56:53.686Z,20.84
2022-09-03T20:59:48.079Z,20.81
2022-09-03T21:02:42.950Z,20.83
2022-09-03T21:05:13.195Z,20.84
2022-09-03T21:07:46.806Z,20.85
2022-09-03T21:10:34.127Z,20.83
2022-09-03T21:13:25.047Z,20.85
2022-09-03T21:16:16.527Z,20.85
2022-09-03T21:19:01.788Z,20.85
2022-09-03T21:22:02.280Z,20.84
2022-09-03T21:25:01.420Z,20.85
2022-09-03T21:27:41.589Z,20.89
2022-09-03T21:30:16.483Z,20.88
2022-09-03T21:33:04.760Z,20.89
2022-09-03T21:36:01.633Z,20.88
2022-09-03T21:38:36.197Z,20.88
2022-09-03T21:41:08.935Z,20.86
2022-09-03T21:44:07.498Z,20.86
2022-09-03T21:47:01.649Z,20.86
2022-09-03T21:49:40.480Z,20.83
2022-09-03T21:52:28.381Z,20.85
2022-09-03T21:54:58.393Z,20.82
2022-09-03T21:57:59.904Z,20.84
2022-09-03T22:00:33.910Z,20.82
2022-09-03T22:03:11.807Z,20.82
2022-09-03T22:06:09.719Z,20.83
2022-09-03T22:08:56.081Z,20.82
2022-09-03T22:11:46.820Z,20.82
2022-09-03T22:14:22.463Z,20.82
2022-09-03T22:17:05.924Z,20.86
2022-09-03T22:19:38.802Z,20.88
2022-09-03T22:22:14.610Z,20.89
2022-09-03T22:25:06.021Z,20.90
2022-09-03T22:28:02.058Z,20.91
2022-09-03T22:30:42.363Z,20.90
2022-09-03T22:33:41.802Z,20.93
2022-09-03T22:36:22.825Z,20.94
2022-09-03T22:39:17.046Z,20.96
2022-09-03T22:42:34.231Z,20.95
2022-09-03T22:45:41.990Z,20.96
2022-09-03T22:48:24.274Z,20.98
2022-09-03T22:51:00.629Z,20.98
2022-09-03T22:54:07.693Z,20.99
2022-09-03T22:56:42.455Z,21.01
2022-09-03T22:59:24.166Z,20.98
2022-09-03T23:02:13.260Z,20.98
2022-09-03T23:05:00.658Z,20.99
2022-09-03T23:08:08.029Z,21.00
2022-09-03T23:10:45.297Z,20.98
2022-09-03T23:13:32.969Z,20.98
2022-09-03T23:16:25.567Z,20.99
2022-09-03T23:18:56.026Z,21.01
2022-09-03T23:21:55.385Z,21.03
2022-09-03T23:24:36.970Z,21.04
2022-09-03T23:27:12.487Z,21.08
2022-09-03T23:29:50.541Z,21.10
2022-09-03T23:32:20.898Z,21.13
2022-09-03T23:34:51.588Z,21.13
2022-09-03T23:37:35.913Z,21.15
2022-09-03T23:40:15.057Z,21.15
2022-09-03T23:42:51.125Z,21.15
2022-09-03T23:45:44.989Z,21.16
2022-09-03T23:48:38.880Z,21.16
2022-09-03T23:51:40.579Z,21.18
2022-09-03T23:54:41.129Z,21.20
2022-09-03T23:57:34.647Z,21.19
